createdAt,value
2023-01-09T00:01:25.798Z,9.13
2023-01-09T00:03:53.633Z,9.63
2023-01-09T00:06:21.568Z,9.68
2023-01-09T00:08:50.796Z,10.93
2023-01-09T00:11:18.847Z,10.82
2023-01-09T00:13:47.173Z,12.40
2023-01-09T00:16:15.092Z,10.55
2023-01-09T00:18:42.971Z,8.10
2023-01-09T00:21:13.168Z,10.18
2023-01-09T00:23:41.398Z,9.07
2023-01-09T00:26:12.483Z,8.23
2023-01-09T00:28:41.182Z,10.32
2023-01-09T00:31:09.752Z,10.35
2023-01-09T00:33:40.619Z,7.85
2023-01-09T00:36:09.101Z,8.82
2023-01-09T00:38:37.686Z,8.95
2023-01-09T00:41:07.037Z,10.55
2023-01-09T00:43:40.227Z,8.98
2023-01-09T21:47:27.967Z,15.35
2023-01-09T21:49:55.824Z,11.18
2023-01-09T21:52:25.530Z,13.05
2023-01-09T21:54:53.469Z,10.60
2023-01-09T21:57:21.401Z,11.43
2023-01-09T21:59:49.259Z,10.68
2023-01-09T22:02:17.130Z,9.38
2023-01-09T22:04:48.859Z,9.93
2023-01-09T22:07:16.985Z,10.60
2023-01-09T22:09:45.689Z,11.20
2023-01-09T22:12:13.998Z,11.07
2023-01-09T22:14:41.846Z,8.30
2023-01-09T22:17:09.705Z,8.73
2023-01-09T22:19:37.570Z,9.52
2023-01-09T22:22:08.357Z,7.43
2023-01-09T22:24:36.356Z,30.00
2023-01-09T22:27:04.467Z,95.70
2023-01-09T22:29:32.354Z,127.85
2023-01-09T22:32:00.368Z,215.30
2023-01-09T22:34:28.507Z,223.00
2023-01-09T22:36:56.398Z,204.60
2023-01-09T22:39:26.059Z,184.45
2023-01-09T22:41:55.136Z,173.88
2023-01-09T22:44:23.145Z,191.20
2023-01-09T22:46:50.977Z,241.68
2023-01-09T22:49:18.843Z,294.63
2023-01-09T22:51:46.722Z,261.05
2023-01-09T22:54:14.591Z,240.10
2023-01-09T22:56:43.811Z,212.73
2023-01-09T22:59:11.731Z,171.30
2023-01-09T23:01:39.662Z,171.77
2023-01-09T23:04:07.527Z,128.00
2023-01-09T23:06:35.430Z,123.78
2023-01-09T23:09:03.296Z,107.88
2023-01-09T23:11:49.333Z,110.10
2023-01-09T23:14:19.064Z,100.60
2023-01-09T23:16:47.054Z,93.93
2023-01-09T23:19:15.542Z,84.03
2023-01-09T23:21:44.437Z,83.47
2023-01-09T23:24:13.367Z,74.75
2023-01-09T23:26:41.293Z,71.93
2023-01-09T23:29:09.376Z,69.20
2023-01-09T23:31:38.619Z,74.25
2023-01-09T23:34:08.011Z,57.08
2023-01-09T23:36:36.067Z,56.10
2023-01-09T23:39:08.697Z,59.20
2023-01-09T23:41:54.299Z,53.25
2023-01-09T23:44:22.185Z,55.47
2023-01-09T23:46:51.521Z,48.88
2023-01-09T23:49:19.439Z,62.58
2023-01-09T23:51:47.350Z,46.78
2023-01-09T23:54:15.996Z,46.20
2023-01-09T23:56:43.841Z,44.38
2023-01-09T23:59:14.082Z,40.55
